Home > Products > Valid Products > TAF

000
FTUS44 KMEG 300453 AAB
TAFTUP
TAF AMD
KTUP 300453Z 3005/3024 02014G22KT P6SM SCT028 BKN035
      TEMPO 3006/3008 BKN028
     FM301000 02009KT P6SM BKN035
     FM301800 04010KT P6SM SCT035=



000
FTUS44 KMEG 300447 AAB
TAFJBR
TAF AMD
KJBR 300447Z 3005/3024 33004KT P6SM FEW035
     FM301400 03008KT P6SM SCT030=



000
FTUS44 KMEG 300444 AAA
TAFMKL
TAF AMD
KMKL 300444Z 3005/3024 34010KT P6SM BKN040
     FM301500 01008KT P6SM SCT035=



000
FTUS44 KMEG 300434 AAC
TAFMEM
TAF AMD
KMEM 300434Z 3005/3024 35011G18KT P6SM OVC035
     FM300600 36006KT P6SM SCT035
     FM301200 01007KT P6SM SCT035=



000
FTUS44 KMEG 300258 AAB
TAFMEM
TAF AMD
KMEM 300258Z 3003/3024 34011G21KT P6SM OVC035
     FM300500 36006KT P6SM SCT035
     FM301200 01007KT P6SM SCT035=



000
FTUS44 KMEG 300236 AAA
TAFMEM
TAF AMD
KMEM 300236Z 3003/3024 36011KT P6SM SCT029 OVC035
     FM300600 36006KT P6SM BKN030
     FM301200 01007KT P6SM SCT030=



000
FTUS44 KMEG 300129 AAA
TAFJBR
TAF AMD
KJBR 300129Z 3001/3024 33012G18KT P6SM BKN035
     FM300600 36007KT P6SM BKN028
     FM301400 05007KT P6SM SCT030=



000
FTUS44 KMEG 300126 AAA
TAFTUP
TAF AMD
KTUP 300126Z 3001/3024 02014G22KT P6SM BKN035 OVC200
     FM300300 02012KT P6SM BKN028
     FM300600 02006KT P6SM BKN028
     FM301800 03010KT P6SM SCT030=



000
FTUS44 KMEG 292336
TAFMKL
TAF
KMKL 292336Z 3000/3024 33012G22KT P6SM BKN028 OVC200
     FM300100 36010KT P6SM BKN028
     FM300600 01008KT P6SM BKN025
     FM301600 01007KT P6SM SCT030=



000
FTUS44 KMEG 292336
TAFMEM
TAF
KMEM 292336Z 3000/3024 36014G22KT P6SM BKN035 OVC200
     FM300100 36011KT P6SM BKN028
     FM300600 36006KT P6SM BKN030
     FM301200 01007KT P6SM SCT030=



000
FTUS44 KMEG 292336
TAFTUP
TAF
KTUP 292336Z 3000/3024 34011G20KT P6SM BKN030 OVC200
     FM300100 36012KT P6SM BKN028
     FM300600 02006KT P6SM BKN028
     FM301800 03010KT P6SM SCT030=



000
FTUS44 KMEG 292336
TAFJBR
TAF
KJBR 292336Z 3000/3024 33011KT P6SM BKN028
     FM300600 36007KT P6SM BKN028
     FM301400 05007KT P6SM SCT030=



000
FTUS44 KMEG 292101 AAA
TAFTUP
TAF AMD
KTUP 292101Z 2921/3018 27013G20KT P6SM SCT030 BKN250
     FM292200 34010KT P6SM SCT030 BKN200
     FM300900 02007KT P6SM FEW030
     FM301500 03012KT P6SM SKC=



000
FTUS44 KMEG 292101 AAA
TAFJBR
TAF AMD
KJBR 292101Z 2921/3018 32013G20KT P6SM SCT030 BKN250
     FM292300 33011KT P6SM BKN020 OVC250
     FM300600 36006KT P6SM SCT030 BKN250
     FM301400 02007KT P6SM SKC=



000
FTUS44 KMEG 292100 AAB
TAFMKL
TAF AMD
KMKL 292100Z 2921/3018 31015G20KT P6SM SCT030 BKN250
     FM292300 33012KT P6SM BKN020 OVC250
     FM300900 36006KT P6SM SCT030 BKN250
     FM301500 02010KT P6SM SKC=



000
FTUS44 KMEG 292059 AAB
TAFMEM
TAF AMD
KMEM 292059Z 2921/3018 33013G20KT P6SM SCT030 BKN250
     FM292300 34011KT P6SM BKN025 OVC250
     FM300600 36006KT P6SM SCT030 BKN250
     FM301500 02010KT P6SM SKC=



000
FTUS44 KMEG 291917 AAA
TAFMKL
TAF AMD
KMKL 291917Z 2919/3018 31015G20KT P6SM SCT030 BKN250
     FM292100 33012KT P6SM BKN020 OVC250
     FM300900 36006KT P6SM SCT030 BKN250
     FM301500 02010KT P6SM SKC=



000
FTUS44 KMEG 291916 AAA
TAFMEM
TAF AMD
KMEM 291916Z 2919/3018 33013G20KT P6SM SCT030 BKN250
     FM292100 34011KT P6SM BKN020 OVC250
     FM300600 36006KT P6SM SCT030 BKN250
     FM301500 02010KT P6SM SKC=



000
FTUS44 KMEG 291733
TAFJBR
TAF
KJBR 291733Z 2918/3018 32013G20KT P6SM SCT030 BKN250
     FM292000 33011KT P6SM BKN020 OVC250
     FM300600 36006KT P6SM SCT030 BKN250
     FM301400 02007KT P6SM SKC=



000
FTUS44 KMEG 291733
TAFMEM
TAF
KMEM 291733Z 2918/3018 28013G20KT P6SM SCT030 BKN250
     FM292100 34011KT P6SM BKN020 OVC250
     FM300600 36006KT P6SM SCT030 BKN250
     FM301500 02010KT P6SM SKC=



000
FTUS44 KMEG 291733
TAFTUP
TAF
KTUP 291733Z 2918/3018 24013G20KT P6SM SCT030 BKN250
     FM292200 34010KT P6SM SCT030 BKN200
     FM300900 02007KT P6SM FEW030
     FM301500 03012KT P6SM SKC=



000
FTUS44 KMEG 291733
TAFMKL
TAF
KMKL 291733Z 2918/3018 27015G20KT P6SM SCT030 BKN250
     FM292100 33012KT P6SM BKN020 OVC250
     FM300900 36006KT P6SM SCT030 BKN250
     FM301500 02010KT P6SM SKC=



000
FTUS44 KMEG 291458 AAA
TAFMEM
TAF AMD
KMEM 291458Z 2915/3012 24013G22KT P6SM SCT050 SCT120 BKN250
     FM291700 32013G22KT P6SM SCT030 BKN250
     FM300100 35012KT P6SM SCT030 BKN250
     FM300300 36007KT P6SM SCT030 BKN250
     FM300900 36006KT P6SM SKC=



000
FTUS44 KMEG 291123 CCA
TAFTUP
TAF COR
KTUP 291123Z 2911/3012 21010KT P6SM BKN100 OVC250 WS020/23050KT
      TEMPO 2911/2914 6SM -RA
     FM291600 24012G18KT P6SM BKN080 OVC250
     FM292000 32010G17KT P6SM SCT030 BKN250
     FM300000 01012KT P6SM SCT030 BKN250
     FM300400 01008KT P6SM SCT030 BKN250=



000
FTUS44 KMEG 291122 AAA
TAFTUP
TAF AMD
KTUP 291122Z 2911/3012 21010KT P6SM BKN100 OVC250 WS020/23050KT
      TEMPO 2912/2914 6SM -RA
     FM291600 24012G18KT P6SM BKN080 OVC250
     FM292000 32010G17KT P6SM SCT030 BKN250
     FM300000 01012KT P6SM SCT030 BKN250
     FM300400 01008KT P6SM SCT030 BKN250=



000
FTUS44 KMEG 291120
TAFMEM
TAF
KMEM 291120Z 2912/3012 21014G23KT P6SM SCT120 OVC250 WS020/25050KT
     FM291400 24013G22KT P6SM SCT050 SCT120 BKN250
     FM291700 32013G22KT P6SM SCT030 BKN250
     FM300100 35012KT P6SM SCT030 BKN250
     FM300300 36007KT P6SM SCT030 BKN250
     FM300900 36006KT P6SM SKC=



000
FTUS44 KMEG 291120
TAFTUP
TAF
KTUP 291120Z 2912/3012 21010KT P6SM BKN100 OVC250 WS020/23050KT
     FM291600 24012G18KT P6SM BKN080 OVC250
     FM292000 32010G17KT P6SM SCT030 BKN250
     FM300000 01012KT P6SM SCT030 BKN250
     FM300400 01008KT P6SM SCT030 BKN250=



000
FTUS44 KMEG 291120
TAFMKL
TAF
KMKL 291120Z 2912/3012 21014G23KT P6SM BKN100 OVC250 WS020/24055KT
     FM291500 24014G22KT P6SM BKN100 OVC250
     FM291700 31014G22KT P6SM SCT030 BKN050 BKN250
     FM300000 34012KT P6SM SCT030 BKN050
     FM300300 35007KT P6SM SCT030 BKN050
     FM300900 34005KT P6SM SKC=



000
FTUS44 KMEG 291120
TAFJBR
TAF
KJBR 291120Z 2912/3012 24016G23KT P6SM SCT120 OVC250 WS020/26050KT
     FM291300 24016G23KT P6SM SCT120 OVC250
     FM291500 31015G23KT P6SM SCT030 BKN250
     FM300000 34010KT P6SM SCT030 BKN250
     FM300200 34007KT P6SM SCT030 BKN250
     FM300800 34006KT P6SM SKC=



000
FTUS44 KMEG 290901 AAA
TAFJBR
TAF AMD
KJBR 290901Z 2909/3006 23018G25KT P6SM BKN100 OVC250 WS020/23055KT
     FM291600 33015G22KT P6SM OVC025
     FM300000 34010KT P6SM BKN025
     FM300400 34006KT P6SM SCT025=



000
FTUS44 KMEG 290859 AAA
TAFMEM
TAF AMD
KMEM 290859Z 2909/3006 21015G22KT P6SM BKN090 OVC250 WS020/23055KT
      TEMPO 2909/2911 -RA
     FM291300 24011G17KT P6SM SCT025 OVC080
     FM291700 32012G18KT P6SM OVC025
     FM300000 36008KT P6SM BKN025=



000
FTUS44 KMEG 290528
TAFMEM
TAF
KMEM 290528Z 2906/3006 19012G22KT P6SM BKN100 WS020/23055KT
     FM291300 24011G17KT P6SM SCT025 OVC080
     FM291700 32012G18KT P6SM OVC025
     FM300000 36008KT P6SM BKN025=



000
FTUS44 KMEG 290528
TAFMKL
TAF
KMKL 290528Z 2906/3006 19013G20KT P6SM BKN100 WS020/23055KT
     FM291400 22014G20KT P6SM SCT030 OVC080
     FM291700 30012G18KT P6SM OVC025
     FM300000 35006KT P6SM BKN025=



000
FTUS44 KMEG 290528
TAFJBR
TAF
KJBR 290528Z 2906/3006 20014G22KT P6SM BKN100 WS020/23055KT
     FM291600 33015G22KT P6SM OVC025
     FM300000 34010KT P6SM BKN025
     FM300400 34006KT P6SM SCT025=



000
FTUS44 KMEG 290528
TAFTUP
TAF
KTUP 290528Z 2906/3006 19008KT P6SM BKN250
     FM290700 20007KT P6SM BKN100 WS020/23055KT
     FM291300 22007KT P6SM BKN080
     FM292100 32009KT P6SM OVC025
     FM300000 01010KT P6SM OVC025=



000
FTUS44 KMEG 290304 AAA
TAFMEM
TAF AMD
KMEM 290304Z 2903/2924 16011KT P6SM BKN250
     FM290500 19015G22KT P6SM BKN100 WS018/23050KT
     FM291300 24011G17KT P6SM SCT025 OVC080
     FM291700 32012G18KT P6SM OVC025=



000
FTUS44 KMEG 282331 CCB
TAFJBR
TAF COR
KJBR 282331Z 2900/2924 16012KT P6SM BKN250
     FM290500 22015G22KT P6SM BKN100 WS018/24050KT
     FM291600 33015G22KT P6SM OVC025=



000
FTUS44 KMEG 282330 CCA
TAFJBR
TAF COR
KJBR 282330Z 2900/2924 16012KT P6SM BKN250
     FM290600 22015G22KT P6SM BKN100 WS018/24050KT
     FM291600 33015G22KT P6SM OVC025=



000
FTUS44 KMEG 282330 CCA
TAFTUP
TAF COR
KTUP 282330Z 2900/2924 20007KT P6SM SKC
     FM290700 20007KT P6SM BKN100 WS018/24045KT
     FM291300 22007KT P6SM BKN080
     FM292100 32009KT P6SM OVC025=



000
FTUS44 KMEG 282329
TAFTUP
TAF
KTUP 282329Z 2900/2924 20007KT P6SM SKC
     FM290700 20007KT P6SM SCT050 BKN100 WS018/24045KT
     FM291300 22007KT P6SM BKN080
     FM292100 32009KT P6SM OVC025=



000
FTUS44 KMEG 282329
TAFJBR
TAF
KJBR 282329Z 2900/2924 16012KT P6SM SKC
     FM290600 22015G22KT P6SM SCT030 OVC100 WS018/24050KT
     FM291600 33015G22KT P6SM OVC025=



000
FTUS44 KMEG 282329
TAFMKL
TAF
KMKL 282329Z 2900/2924 16007KT P6SM SCT250
     FM290500 18013KT P6SM BKN100 WS018/22050KT
     FM291400 22014G20KT P6SM SCT030 OVC080
     FM291700 30012G18KT P6SM OVC025=



000
FTUS44 KMEG 282329
TAFMEM
TAF
KMEM 282329Z 2900/2924 16011KT P6SM BKN250
     FM290500 19015G22KT P6SM BKN100 WS018/23050KT
     FM291300 24011G17KT P6SM SCT025 OVC080
     FM291700 32012G18KT P6SM OVC025=



000
FTUS44 KMEG 282052 AAA
TAFMEM
TAF AMD
KMEM 282052Z 2821/2918 16010KT P6SM FEW250
     FM290400 19015G22KT P6SM FEW100
     FM290900 22012G20KT P6SM SCT030 BKN100
     FM291400 24011G17KT P6SM SCT030 OVC080=



000
FTUS44 KMEG 281725
TAFMEM
TAF
KMEM 281725Z 2818/2918 16010KT P6SM SKC
     FM290400 19015G22KT P6SM FEW100
     FM290900 22012G20KT P6SM SCT030 BKN100
     FM291400 24011G17KT P6SM SCT030 OVC080=



000
FTUS44 KMEG 281725
TAFTUP
TAF
KTUP 281725Z 2818/2918 17007KT P6SM SKC
     FM291000 20007KT P6SM SCT050 BKN100=



000
FTUS44 KMEG 281725
TAFJBR
TAF
KJBR 281725Z 2818/2918 16012KT P6SM SKC
     FM290700 22015G22KT P6SM SCT030 OVC100=



000
FTUS44 KMEG 281725
TAFMKL
TAF
KMKL 281725Z 2818/2918 16007KT P6SM SKC
     FM290400 18013KT P6SM SCT100
     FM291000 19014G20KT P6SM SCT030 OVC080=



000
FTUS44 KMEG 281459 AAA
TAFMEM
TAF AMD
KMEM 281459Z 2815/2912 16010KT P6SM SKC
     FM290300 18012KT P6SM SKC
     FM290600 20014G20KT P6SM SCT030 BKN100=



000
FTUS44 KMEG 281120
TAFTUP
TAF
KTUP 281120Z 2812/2912 11005KT P6SM SKC
     FM281800 18008KT P6SM SKC
     FM290000 19006KT P6SM SKC
     FM290900 20007KT P6SM SCT050 SCT100=



000
FTUS44 KMEG 281120
TAFMEM
TAF
KMEM 281120Z 2812/2912 13007KT P6SM SKC
     FM281800 16010KT P6SM SKC
     FM290300 18012KT P6SM SKC
     FM290600 20014G20KT P6SM SCT030 BKN100=



000
FTUS44 KMEG 281120
TAFMKL
TAF
KMKL 281120Z 2812/2912 12005KT P6SM SKC
     FM281800 16007KT P6SM SKC
     FM290300 18011KT P6SM SKC
     FM290900 19014G20KT P6SM SCT030 BKN080=



000
FTUS44 KMEG 281120
TAFJBR
TAF
KJBR 281120Z 2812/2912 11006KT P6SM SKC
     FM281500 14009KT P6SM SKC
     FM281800 16012KT P6SM SKC
     FM290500 20014G22KT P6SM SCT030 OVC060=



000
FTUS44 KMEG 280859 AAA
TAFMEM
TAF AMD
KMEM 280859Z 2809/2906 11004KT P6SM SKC
     FM281200 12007KT P6SM SKC
     FM281800 16010KT P6SM SKC
     FM290300 18012KT P6SM SKC=



000
FTUS44 KMEG 280859 AAA
TAFMEM
TAF AMD
KMEM 280859Z 2809/2906 11004KT P6SM SKC
     FM281200 12007KT P6SM SKC
     FM281800 16010KT P6SM SKC
     FM290300 18012KT P6SM SKC=



000
FTUS44 KMEG 280520
TAFMEM
TAF
KMEM 280520Z 2806/2906 08008KT P6SM SKC
     FM280700 06004KT P6SM SKC
     FM281500 15008KT P6SM SCT250
     FM290300 17011KT P6SM FEW250=



000
FTUS44 KMEG 280520
TAFTUP
TAF
KTUP 280520Z 2806/2906 04006KT P6SM SKC
     FM281200 09004KT P6SM SCT250
     FM281800 17007KT P6SM SKC=



000
FTUS44 KMEG 280520
TAFJBR
TAF
KJBR 280520Z 2806/2906 06006KT P6SM SKC
     FM281200 13006KT P6SM SCT250
     FM281600 16010KT P6SM SKC=



000
FTUS44 KMEG 280520
TAFMKL
TAF
KMKL 280520Z 2806/2906 09006KT P6SM SKC
     FM281200 12005KT P6SM SCT250
     FM290300 18008KT P6SM FEW250=



000
FTUS44 KMEG 280257 AAA
TAFMEM
TAF AMD
KMEM 280257Z 2803/2824 06005KT P6SM SKC
     FM281500 15008KT P6SM SCT250=



000
FTUS44 KMEG 280257 AAA
TAFMEM
TAF AMD
KMEM 280257Z 2803/2824 06005KT P6SM SKC
     FM281500 15008KT P6SM SCT250=



000
FTUS44 KMEG 272320
TAFMKL
TAF
KMKL 272320Z 2800/2824 35011KT P6SM SKC
     FM281200 12005KT P6SM SCT250=



000
FTUS44 KMEG 272320
TAFJBR
TAF
KJBR 272320Z 2800/2824 05004KT P6SM SKC
     FM281200 13006KT P6SM SCT250
     FM281600 16010KT P6SM SKC=



000
FTUS44 KMEG 272320
TAFMEM
TAF
KMEM 272320Z 2800/2824 33008KT P6SM SKC
     FM280200 08004KT P6SM SKC
     FM281500 15008KT P6SM SCT250=



000
FTUS44 KMEG 272320
TAFTUP
TAF
KTUP 272320Z 2800/2824 36009KT P6SM SKC
     FM281200 09004KT P6SM SCT250
     FM281800 16005KT P6SM SKC=



000
FTUS44 KMEG 272104 AAA
TAFMKL
TAF AMD
KMKL 272104Z 2721/2818 34012KT P6SM SCT040
     FM280000 VRB03KT P6SM SKC
     FM281200 12005KT P6SM SCT250=



000
FTUS44 KMEG 272100 AAA
TAFMEM
TAF AMD
KMEM 272100Z 2721/2818 36006KT P6SM SKC
     FM280000 04005KT P6SM SKC
     FM280600 10004KT P6SM SKC
     FM281200 14006KT P6SM SCT250=



000
FTUS44 KMEG 271730
TAFTUP
TAF
KTUP 271730Z 2718/2818 01010KT P6SM FEW040
     FM280000 VRB03KT P6SM SKC
     FM281200 12004KT P6SM SCT250=



000
FTUS44 KMEG 271730
TAFMKL
TAF
KMKL 271730Z 2718/2818 34010KT P6SM SCT030 BKN050
      TEMPO 2718/2722 BKN030 OVC050
     FM280000 VRB03KT P6SM SKC
     FM281200 12005KT P6SM SCT250=



000
FTUS44 KMEG 271730
TAFJBR
TAF
KJBR 271730Z 2718/2818 36008KT P6SM SKC
     FM280000 07004KT P6SM SKC
     FM281200 13006KT P6SM SCT250=



000
FTUS44 KMEG 271730
TAFMEM
TAF
KMEM 271730Z 2718/2818 36010G15KT P6SM FEW040
     FM272300 04005KT P6SM SKC
     FM280600 10004KT P6SM SKC
     FM281200 14006KT P6SM SCT250=



000
FTUS44 KMEG 271459 AAA
TAFMEM
TAF AMD
KMEM 271459Z 2715/2812 36010KT P6SM SCT040
     FM272300 04005KT P6SM SKC
     FM280600 09004KT P6SM SKC=



000
FTUS44 KMEG 271120
TAFTUP
TAF
KTUP 271120Z 2712/2812 34005KT P6SM SKC
     FM271400 01010KT P6SM SCT040
     FM271700 01010KT P6SM BKN040
     FM280000 02005KT P6SM SCT050
     FM280200 04003KT P6SM SKC=



000
FTUS44 KMEG 271120
TAFMEM
TAF
KMEM 271120Z 2712/2812 33005KT P6SM SKC
     FM271400 36010KT P6SM SCT040
     FM272300 04005KT P6SM SKC
     FM280600 09004KT P6SM SKC=



000
FTUS44 KMEG 271120
TAFJBR
TAF
KJBR 271120Z 2712/2812 33007KT P6SM SKC
     FM271400 36010KT P6SM SCT040
     FM280000 05004KT P6SM SKC
     FM280600 08004KT P6SM SKC=



000
FTUS44 KMEG 271120
TAFMKL
TAF
KMKL 271120Z 2712/2812 32006KT P6SM SCT050
      TEMPO 2712/2714 BKN050
     FM271400 34010KT P6SM SCT030 OVC050
      TEMPO 2715/2718 BKN030 OVC050
     FM271800 34010KT P6SM OVC030
     FM280000 36004KT P6SM SCT030 BKN050
     FM280300 05003KT P6SM SKC=



000
FTUS44 KMEG 270852 AAA
TAFMEM
TAF AMD
KMEM 270852Z 2709/2806 33005KT P6SM SKC
     FM271500 36010KT P6SM SCT040
     FM272300 04005KT P6SM SKC=



000
FTUS44 KMEG 270520
TAFTUP
TAF
KTUP 270520Z 2706/2806 20003KT P6SM SKC
     FM271700 01010KT P6SM OVC030
     FM272100 02007KT P6SM SKC
     FM280200 02003KT P6SM SKC=



000
FTUS44 KMEG 270520
TAFMEM
TAF
KMEM 270520Z 2706/2806 30003KT P6SM SKC
     FM271500 36010KT P6SM BKN250
     FM272300 02006KT P6SM FEW250=



000
FTUS44 KMEG 270520
TAFMKL
TAF
KMKL 270520Z 2706/2806 11003KT P6SM SKC
     FM271300 32010KT P6SM OVC030
     FM272200 34007KT P6SM OVC250
     FM280300 02003KT P6SM SKC=



000
FTUS44 KMEG 270520
TAFJBR
TAF
KJBR 270520Z 2706/2806 25005KT P6SM SKC
     FM271300 34010KT P6SM BKN250
     FM272200 03006KT P6SM SKC=



    US Dept of Commerce
    National Oceanic and Atmospheric Administration
    National Weather Service
    1325 East West Highway
    Silver Spring, MD 20910
    Page Author: NWS Internet Services Team
Disclaimer
Information Quality
Credits
Glossary
Privacy Policy
Freedom of Information Act (FOIA)
About Us
Career Opportunities